• Join FlightAware (Why Join?)
  • Login
  • US Flag 
09:59AM EDT


 

Airport Tracker/Info


-or-


 

Live Flight TrackerFlight Track Log ✈ FIN3269 ✈ 16-Nov-2013 ✈ EFHK / HEL - LEBL / BCN

Flight Track Log - Related Links

Times and Time Zones

All times are in EST time to prevent confusion due to time zone crossing. See the FIN3269 flight status page for this flight to view local times or setup timezone preferences in your user account.

Time Position Orientation Groundspeed Altitude Reporting Facility
EST Latitude Longitude Course Direction KTS MPH feet Rate Location/Type
10:24AM 59.9965 24.2845 227° Southwest  Level Estimated
10:25AM 59.9158 24.1169 226° Southwest  Level Estimated
10:26AM 59.8349 23.9500 226° Southwest  Level Estimated
10:27AM 59.7538 23.7840 226° Southwest  Level Estimated
10:28AM 59.6724 23.6188 226° Southwest  Level Estimated
10:29AM 59.5909 23.4544 226° Southwest  Level Estimated
10:30AM 59.5091 23.2908 225° Southwest  Level Estimated
10:31AM 59.4272 23.1279 225° Southwest  Level Estimated
10:32AM 59.3450 22.9659 225° Southwest  Level Estimated
10:33AM 59.2626 22.8046 225° Southwest  Level Estimated
10:34AM 59.1801 22.6441 225° Southwest  Level Estimated
10:35AM 59.0973 22.4844 225° Southwest  Level Estimated
10:36AM 59.0144 22.3255 225° Southwest  Level Estimated
10:37AM 58.9313 22.1673 225° Southwest  Level Estimated
10:38AM 58.8479 22.0099 224° Southwest  Level Estimated
10:39AM 58.7644 21.8533 224° Southwest  Level Estimated
10:40AM 58.6807 21.6974 224° Southwest  Level Estimated
10:41AM 58.5968 21.5422 224° Southwest  Level Estimated
10:42AM 58.5127 21.3878 224° Southwest  Level Estimated
10:43AM 58.4284 21.2341 224° Southwest  Level Estimated
10:44AM 58.3440 21.0812 224° Southwest  Level Estimated
10:45AM 58.2593 20.9290 223° Southwest  Level Estimated
10:46AM 58.1745 20.7775 223° Southwest  Level Estimated
10:47AM 58.0895 20.6268 223° Southwest  Level Estimated
10:48AM 58.0044 20.4767 223° Southwest  Level Estimated
10:49AM 57.9190 20.3274 223° Southwest  Level Estimated
10:50AM 57.8335 20.1788 223° Southwest  Level Estimated
10:51AM 57.7478 20.0308 223° Southwest  Level Estimated
10:52AM 57.6619 19.8836 223° Southwest  Level Estimated
10:53AM 57.5759 19.7371 222° Southwest  Level Estimated
10:54AM 57.4897 19.5913 222° Southwest  Level Estimated
10:55AM 57.4033 19.4461 222° Southwest  Level Estimated
10:56AM 57.3168 19.3017 222° Southwest  Level Estimated
10:57AM 57.2301 19.1579 222° Southwest  Level Estimated
10:58AM 57.1432 19.0148 222° Southwest  Level Estimated
10:59AM 57.0562 18.8724 222° Southwest  Level Estimated
11:00AM 56.9690 18.7306 222° Southwest  Level Estimated
11:01AM 56.8816 18.5895 221° Southwest  Level Estimated
11:02AM 56.7941 18.4491 221° Southwest  Level Estimated
11:03AM 56.7065 18.3093 221° Southwest  Level Estimated
11:04AM 56.6186 18.1702 221° Southwest  Level Estimated
11:05AM 56.5307 18.0317 221° Southwest  Level Estimated
11:06AM 56.4425 17.8938 221° Southwest  Level Estimated
11:07AM 56.3543 17.7566 221° Southwest  Level Estimated
11:08AM 56.2658 17.6200 221° Southwest  Level Estimated
11:09AM 56.1772 17.4841 221° Southwest  Level Estimated
11:10AM 56.0885 17.3488 220° Southwest  Level Estimated
11:11AM 55.9996 17.2141 220° Southwest  Level Estimated
11:12AM 55.9106 17.0800 220° Southwest  Level Estimated
11:13AM 55.8214 16.9465 220° Southwest  Level Estimated
11:14AM 55.7321 16.8137 220° Southwest  Level Estimated
11:15AM 55.6427 16.6814 220° Southwest  Level Estimated
11:16AM 55.5531 16.5498 220° Southwest  Level Estimated
11:17AM 55.4633 16.4188 220° Southwest  Level Estimated
11:18AM 55.3735 16.2883 220° Southwest  Level Estimated
11:19AM 55.2835 16.1584 219° Southwest  Level Estimated
11:20AM 55.1933 16.0292 219° Southwest  Level Estimated
11:21AM 55.1030 15.9005 219° Southwest  Level Estimated
11:22AM 55.0126 15.7724 219° Southwest  Level Estimated
11:23AM 54.9220 15.6449 219° Southwest  Level Estimated
11:24AM 54.8313 15.5179 219° Southwest  Level Estimated
11:25AM 54.7405 15.3915 219° Southwest  Level Estimated
11:26AM 54.6496 15.2657 219° Southwest  Level Estimated
11:27AM 54.5585 15.1405 219° Southwest  Level Estimated
11:28AM 54.4673 15.0158 218° Southwest  Level Estimated
11:29AM 54.3759 14.8916 218° Southwest  Level Estimated
11:30AM 54.2845 14.7680 218° Southwest  Level Estimated
11:31AM 54.1929 14.6450 218° Southwest  Level Estimated
11:32AM 54.1012 14.5225 218° Southwest  Level Estimated
11:33AM 54.0093 14.4005 218° Southwest  Level Estimated
11:34AM 53.9174 14.2791 218° Southwest  Level Estimated
11:35AM 53.8253 14.1582 218° Southwest  Level Estimated
11:36AM 53.7331 14.0379 218° Southwest  Level Estimated
11:37AM 53.6408 13.9180 218° Southwest  Level Estimated
11:38AM 53.5483 13.7987 217° Southwest  Level Estimated
11:39AM 53.4557 13.6800 217° Southwest  Level Estimated
11:40AM 53.3631 13.5617 217° Southwest  Level Estimated
11:41AM 53.2703 13.4439 217° Southwest  Level Estimated
11:42AM 53.1774 13.3267 217° Southwest  Level Estimated
11:43AM 53.0843 13.2100 217° Southwest  Level Estimated
11:44AM 52.9912 13.0938 217° Southwest  Level Estimated
11:45AM 52.8979 12.9780 217° Southwest  Level Estimated
11:46AM 52.8046 12.8628 217° Southwest  Level Estimated
11:47AM 52.7111 12.7480 217° Southwest  Level Estimated
11:48AM 52.6175 12.6338 217° Southwest  Level Estimated
11:49AM 52.5238 12.5200 216° Southwest  Level Estimated
11:50AM 52.4300 12.4068 216° Southwest  Level Estimated
11:51AM 52.3361 12.2940 216° Southwest  Level Estimated
11:52AM 52.2421 12.1817 216° Southwest  Level Estimated
11:53AM 52.1479 12.0698 216° Southwest  Level Estimated
11:54AM 52.0537 11.9584 216° Southwest  Level Estimated
11:55AM 51.9594 11.8475 216° Southwest  Level Estimated
11:56AM 51.8649 11.7371 216° Southwest  Level Estimated
11:57AM 51.7704 11.6271 216° Southwest  Level Estimated
11:58AM 51.6758 11.5176 216° Southwest  Level Estimated
11:59AM 51.5810 11.4086 216° Southwest  Level Estimated
12:00PM 51.4862 11.3000 216° Southwest  Level Estimated
12:01PM 51.3912 11.1918 215° Southwest  Level Estimated
12:02PM 51.2962 11.0841 215° Southwest  Level Estimated
12:03PM 51.2010 10.9769 215° Southwest  Level Estimated
12:04PM 51.1058 10.8701 215° Southwest  Level Estimated
12:05PM 51.0105 10.7637 215° Southwest  Level Estimated
12:06PM 50.9150 10.6578 215° Southwest  Level Estimated
12:07PM 50.8195 10.5522 215° Southwest  Level Estimated
12:08PM 50.7239 10.4472 215° Southwest  Level Estimated
12:09PM 50.6282 10.3425 215° Southwest  Level Estimated
12:10PM 50.5323 10.2383 215° Southwest  Level Estimated
12:11PM 50.4365 10.1345 215° Southwest  Level Estimated
12:12PM 50.3405 10.0311 215° Southwest  Level Estimated
12:13PM 50.2444 9.9282 214° Southwest  Level Estimated
12:14PM 50.1482 9.8256 214° Southwest  Level Estimated
12:15PM 50.0519 9.7235 214° Southwest  Level Estimated
12:16PM 49.9556 9.6218 214° Southwest  Level Estimated
12:17PM 49.8591 9.5205 214° Southwest  Level Estimated
12:18PM 49.7626 9.4196 214° Southwest  Level Estimated
12:19PM 49.6660 9.3190 214° Southwest  Level Estimated
12:20PM 49.5692 9.2189 214° Southwest  Level Estimated
12:21PM 49.4725 9.1192 214° Southwest  Level Estimated
12:22PM 49.3756 9.0199 214° Southwest  Level Estimated
12:23PM 49.2786 8.9210 214° Southwest  Level Estimated
12:24PM 49.1816 8.8224 214° Southwest  Level Estimated
12:25PM 49.0844 8.7243 214° Southwest  Level Estimated
12:26PM 48.9872 8.6265 213° Southwest  Level Estimated
12:27PM 48.8899 8.5291 213° Southwest  Level Estimated
12:28PM 48.7925 8.4321 213° Southwest  Level Estimated
12:29PM 48.6951 8.3355 213° Southwest  Level Estimated
12:30PM 48.5975 8.2392 213° Southwest  Level Estimated
12:31PM 48.4999 8.1433 213° Southwest  Level Estimated
12:32PM 48.4022 8.0478 213° Southwest  Level Estimated
12:33PM 48.3044 7.9526 213° Southwest  Level Estimated
12:34PM 48.2066 7.8578 213° Southwest  Level Estimated
12:35PM 48.1087 7.7634 213° Southwest  Level Estimated
12:36PM 48.0106 7.6693 213° Southwest  Level Estimated
12:37PM 47.9126 7.5756 213° Southwest  Level Estimated
12:38PM 47.8144 7.4822 213° Southwest  Level Estimated
12:39PM 47.7161 7.3892 213° Southwest  Level Estimated
12:40PM 47.6178 7.2965 212° Southwest  Level Estimated
12:41PM 47.5195 7.2042 212° Southwest  Level Estimated
12:42PM 47.4210 7.1123 212° Southwest  Level Estimated
12:43PM 47.3225 7.0206 212° Southwest  Level Estimated
12:44PM 47.2239 6.9294 212° Southwest  Level Estimated
12:45PM 47.1252 6.8384 212° Southwest  Level Estimated
12:46PM 47.0264 6.7478 212° Southwest  Level Estimated
12:47PM 46.9276 6.6575 212° Southwest  Level Estimated
12:48PM 46.8287 6.5676 212° Southwest  Level Estimated
12:49PM 46.7298 6.4780 212° Southwest  Level Estimated
12:50PM 46.6307 6.3887 212° Southwest  Level Estimated
12:51PM 46.5316 6.2998 212° Southwest  Level Estimated
12:52PM 46.4324 6.2111 212° Southwest  Level Estimated
12:53PM 46.3332 6.1228 212° Southwest  Level Estimated
12:54PM 46.2339 6.0348 212° Southwest  Level Estimated
12:55PM 46.1345 5.9472 211° Southwest  Level Estimated
12:56PM 46.0351 5.8598 211° Southwest  Level Estimated
12:57PM 45.9361 5.7732 211° Southwest  Level Estimated
12:58PM 45.8370 5.6869 211° Southwest  Level Estimated
12:59PM 45.7378 5.6009 211° Southwest  Level Estimated
01:00PM 45.6386 5.5152 211° Southwest  Level Estimated
01:01PM 45.5393 5.4298 211° Southwest  Level Estimated
01:02PM 45.4400 5.3447 211° Southwest  Level Estimated
01:03PM 45.3406 5.2600 211° Southwest  Level Estimated
01:04PM 45.2411 5.1755 211° Southwest  Level Estimated
01:05PM 45.1416 5.0913 211° Southwest  Level Estimated
01:06PM 45.0420 5.0074 211° Southwest  Level Estimated
01:07PM 44.9424 4.9237 211° Southwest  Level Estimated
01:08PM 44.8427 4.8404 211° Southwest  Level Estimated
01:09PM 44.7429 4.7574 211° Southwest  Level Estimated
01:10PM 44.6431 4.6747 211° Southwest  Level Estimated
01:11PM 44.5432 4.5922 210° Southwest  Level Estimated
01:12PM 44.4432 4.5100 210° Southwest  Level Estimated
01:13PM 44.3432 4.4281 210° Southwest  Level Estimated
01:14PM 44.2431 4.3465 210° Southwest  Level Estimated
01:15PM 44.1430 4.2652 210° Southwest  Level Estimated
01:16PM 44.0428 4.1841 210° Southwest  Level Estimated
01:17PM 43.9426 4.1033 210° Southwest  Level Estimated
01:18PM 43.8423 4.0228 210° Southwest  Level Estimated
01:19PM 43.7419 3.9425 210° Southwest  Level Estimated
01:20PM 43.6415 3.8625 210° Southwest  Level Estimated
01:21PM 43.5411 3.7828 210° Southwest  Level Estimated
01:22PM 43.4405 3.7034 210° Southwest  Level Estimated
01:23PM 43.3400 3.6242 210° Southwest  Level Estimated
01:24PM 43.2393 3.5453 210° Southwest  Level Estimated
01:25PM 43.1386 3.4666 210° Southwest  Level Estimated
01:26PM 43.0379 3.3882 210° Southwest  Level Estimated
01:27PM 42.9371 3.3100 210° Southwest  Level Estimated
01:28PM 42.8363 3.2322 210° Southwest  Level Estimated
01:29PM 42.7354 3.1545 209° Southwest  Level Estimated
01:30PM 42.6344 3.0771 209° Southwest  Level Estimated
01:31PM 42.5334 3.0000 209° Southwest  Level Estimated
01:32PM 42.4324 2.9231 209° Southwest  Level Estimated
01:33PM 42.3313 2.8465 209° Southwest  Level Estimated
01:34PM 42.2301 2.7701 209° Southwest  Level Estimated
01:35PM 42.1289 2.6939 209° Southwest  Level Estimated
01:36PM 42.0276 2.6180 209° Southwest  Level Estimated
01:37PM 41.9263 2.5423 209° Southwest  Level Estimated
01:38PM 41.8250 2.4669 209° Southwest  Level Estimated
01:39PM 41.7236 2.3917 209° Southwest  Level Estimated
01:40PM 41.6221 2.3168 209° Southwest  Level Estimated
01:41PM 41.5206 2.2421 209° Southwest  Level Estimated
01:42PM 41.4191 2.1676 209° Southwest  Level Estimated
01:43PM 41.3175 2.0933 209° Southwest  Level Estimated
01:44PM 41.2971 2.0785 209° Southwest  Level Estimated
01:45PM 41.2971 2.0785 124° Southeast  Level Estimated
01:46PM 41.2971 2.0785 124° Southeast  Level Estimated
01:47PM 41.2971 2.0785 124° Southeast  Level Estimated
01:48PM 41.2971 2.0785 124° Southeast  Level Estimated
01:49PM 41.2971 2.0785 124° Southeast  Level Estimated
01:50PM 41.2971 2.0785 124° Southeast  Level Estimated
01:51PM 41.2971 2.0785 124° Southeast  Level Estimated
01:52PM 41.2971 2.0785 124° Southeast  Level Estimated
01:53PM 41.2971 2.0785 124° Southeast  Level Estimated
01:54PM 41.2971 2.0785 124° Southeast  Level Estimated
01:55PM 41.2971 2.0785 124° Southeast  Level Estimated
01:56PM 41.2971 2.0785 124° Southeast  Level Estimated
01:57PM 41.2971 2.0785 124° Southeast  Level Estimated
01:58PM 41.2971 2.0785 124° Southeast  Level Estimated
01:59PM 41.2971 2.0785 124° Southeast  Level Estimated
02:00PM 41.2971 2.0785 124° Southeast  Level Estimated
02:01PM 41.2971 2.0785 124° Southeast  Level Estimated